Time;durP1;ratioP1;P1;durP2;ratioP2;P2;SDS_P1;SDS_P2;PMS_P1;PMS_P2;Temp;Humidity;BMP_temperature;BMP_pressure;BME280_temperature;BME280_humidity;BME280_pressure;Samples;Min_cycle;Max_cycle;Signal;HPM_P1;HPM_P2
2021/10/26 00:01:04;;;;;;;;;22.00;21.00;;;;;13.72;70.58;101967.03;4919910;28;45437;-76
2021/10/26 00:03:29;;;;;;;;;22.75;18.75;;;;;13.68;70.20;101960.97;4921014;28;45530;-75
2021/10/26 00:05:54;;;;;;;;;19.50;17.25;;;;;13.66;70.21;101961.91;4919993;28;45497;-76
2021/10/26 00:08:20;;;;;;;;;19.75;17.50;;;;;13.64;70.01;101963.72;4921299;28;45453;-76
2021/10/26 00:10:45;;;;;;;;;19.50;14.75;;;;;13.60;70.09;101962.97;4921540;28;45354;-75
2021/10/26 00:13:11;;;;;;;;;19.75;18.75;;;;;13.54;70.31;101963.94;4920049;28;45739;-75
2021/10/26 00:15:38;;;;;;;;;22.00;16.25;;;;;13.51;69.89;101964.00;4920236;28;45363;-75
2021/10/26 00:18:04;;;;;;;;;16.00;14.75;;;;;13.46;70.19;101958.84;4920067;28;45257;-75
2021/10/26 00:20:31;;;;;;;;;21.00;17.75;;;;;13.44;69.79;101962.44;4921347;28;45235;-75
2021/10/26 00:22:57;;;;;;;;;18.25;16.75;;;;;13.39;70.04;101958.16;4920643;28;45375;-76
2021/10/26 00:25:22;;;;;;;;;21.25;18.50;;;;;13.33;70.05;101958.31;4921026;28;46697;-75
2021/10/26 00:27:48;;;;;;;;;18.00;16.75;;;;;13.30;69.77;101958.38;4921439;28;45442;-76
2021/10/26 00:30:14;;;;;;;;;14.50;14.50;;;;;13.26;69.77;101969.94;4917414;28;45507;-76
2021/10/26 00:32:40;;;;;;;;;18.25;16.75;;;;;13.21;69.89;101972.66;4921152;28;45459;-77
2021/10/26 00:35:05;;;;;;;;;17.50;16.00;;;;;13.19;69.71;101978.88;4920927;28;45405;-76
2021/10/26 00:37:31;;;;;;;;;20.25;18.50;;;;;13.12;69.42;101979.03;4921159;28;45292;-76
2021/10/26 00:39:56;;;;;;;;;19.00;17.50;;;;;13.09;69.53;101978.25;4918848;28;45229;-76
2021/10/26 00:42:22;;;;;;;;;16.00;16.00;;;;;13.04;70.00;101979.22;4920825;28;45219;-77
2021/10/26 00:44:47;;;;;;;;;18.25;16.25;;;;;13.01;69.74;101981.91;4920749;28;45458;-77
2021/10/26 00:47:12;;;;;;;;;19.75;19.00;;;;;12.96;69.88;101977.69;4920940;28;45194;-77
2021/10/26 00:49:38;;;;;;;;;24.00;20.25;;;;;12.97;69.66;101992.59;4919175;28;45466;-76
2021/10/26 00:52:04;;;;;;;;;22.75;18.00;;;;;12.94;69.59;101990.88;4983326;28;48439;-77
2021/10/26 00:54:30;;;;;;;;;19.50;19.50;;;;;12.86;69.60;101992.84;4908231;28;47958;-77
2021/10/26 00:56:56;;;;;;;;;24.00;20.25;;;;;12.85;69.67;101988.47;4920859;28;45898;-76
2021/10/26 00:59:21;;;;;;;;;23.25;18.50;;;;;12.79;69.61;101992.97;4918607;28;45479;-77
2021/10/26 01:01:47;;;;;;;;;26.75;22.00;;;;;12.76;69.82;101984.28;4920867;28;45451;-76
2021/10/26 01:04:12;;;;;;;;;27.25;23.75;;;;;12.70;69.57;101988.78;4920430;28;45478;-76
2021/10/26 01:06:38;;;;;;;;;22.75;21.00;;;;;12.68;69.50;101987.94;4920838;28;45364;-76
2021/10/26 01:09:05;;;;;;;;;24.25;22.75;;;;;12.65;69.59;101993.28;4920806;28;45447;-76
2021/10/26 01:11:32;;;;;;;;;25.50;21.50;;;;;12.62;69.40;101990.69;4919830;28;45558;-76
2021/10/26 01:13:58;;;;;;;;;22.00;19.75;;;;;12.57;69.67;101987.28;4920137;28;46337;-76
2021/10/26 01:16:25;;;;;;;;;23.25;22.75;;;;;12.54;69.63;101985.63;4920124;28;45162;-77
2021/10/26 01:18:50;;;;;;;;;24.00;19.75;;;;;12.52;69.56;101997.09;4920494;28;45294;-77
2021/10/26 01:21:16;;;;;;;;;25.50;22.25;;;;;12.48;69.21;101997.16;4920422;28;45297;-77
2021/10/26 01:23:42;;;;;;;;;24.25;22.25;;;;;12.45;69.28;102001.59;4918878;28;46920;-76
2021/10/26 01:26:07;;;;;;;;;27.25;23.25;;;;;12.41;69.45;101998.19;4919590;28;45335;-76
2021/10/26 01:28:33;;;;;;;;;26.50;21.75;;;;;12.38;69.37;101993.84;4919644;28;45424;-76
2021/10/26 01:30:59;;;;;;;;;22.50;19.75;;;;;12.35;69.50;101996.53;4920292;28;45502;-77
2021/10/26 01:33:25;;;;;;;;;24.25;22.75;;;;;12.34;69.52;101996.56;4918109;28;46181;-77
2021/10/26 01:35:50;;;;;;;;;28.75;24.00;;;;;12.30;69.48;101994.91;4919853;28;45400;-76
2021/10/26 01:38:16;;;;;;;;;29.75;23.25;;;;;12.26;69.20;101997.59;4919626;28;45429;-79
2021/10/26 01:40:41;;;;;;;;;28.25;24.50;;;;;12.22;69.45;101998.53;4920435;28;45429;-80
2021/10/26 01:43:07;;;;;;;;;29.75;24.50;;;;;12.22;69.19;102000.31;4910420;28;46174;-81
2021/10/26 01:45:32;;;;;;;;;27.50;27.25;;;;;12.19;69.06;101992.47;4913584;28;46064;-79
2021/10/26 01:47:57;;;;;;;;;28.50;25.75;;;;;12.16;69.35;101990.75;4919795;28;45526;-78
2021/10/26 01:50:23;;;;;;;;;32.25;26.50;;;;;12.14;69.20;101995.19;4920126;28;45226;-78
2021/10/26 01:52:49;;;;;;;;;25.25;23.00;;;;;12.12;69.62;102007.50;4919704;28;46261;-78
2021/10/26 01:55:18;;;;;;;;;28.75;26.25;;;;;12.09;69.36;102008.44;4919508;28;45344;-77
2021/10/26 01:57:44;;;;;;;;;26.75;24.75;;;;;12.07;69.17;102009.34;4919910;28;45379;-77
2021/10/26 02:00:11;;;;;;;;;32.75;25.00;;;;;12.04;69.38;102003.25;4919560;28;45517;-76
2021/10/26 02:02:36;;;;;;;;;27.00;23.75;;;;;12.01;69.47;101998.03;4920093;28;46470;-77
2021/10/26 02:05:04;;;;;;;;;20.75;19.75;;;;;12.01;69.38;102010.34;4916958;28;45352;-77
2021/10/26 02:07:29;;;;;;;;;25.25;23.50;;;;;11.98;69.29;102008.63;4920246;28;45298;-77
2021/10/26 02:09:54;;;;;;;;;27.50;22.75;;;;;11.95;69.43;102010.47;4919982;28;45189;-76
2021/10/26 02:12:21;;;;;;;;;23.50;20.75;;;;;11.92;69.58;102004.34;4919626;28;45356;-76
2021/10/26 02:14:46;;;;;;;;;21.75;20.25;;;;;11.91;69.52;102007.88;4917673;28;45261;-76
2021/10/26 02:17:11;;;;;;;;;22.00;21.75;;;;;11.90;69.48;101998.22;4918624;28;45625;-76
2021/10/26 02:19:37;;;;;;;;;23.50;20.00;;;;;11.88;69.15;102005.28;4918540;28;45910;-77
2021/10/26 02:22:03;;;;;;;;;18.50;17.25;;;;;11.87;69.43;102000.94;4919626;28;45490;-76
2021/10/26 02:24:28;;;;;;;;;19.75;18.75;;;;;11.84;69.27;102000.09;4919251;28;45708;-77
2021/10/26 02:26:55;;;;;;;;;23.00;20.75;;;;;11.84;69.50;102000.09;4919349;28;45504;-77
2021/10/26 02:29:21;;;;;;;;;17.75;17.25;;;;;11.82;69.78;102000.13;4919668;28;45479;-77
2021/10/26 02:31:46;;;;;;;;;16.75;16.75;;;;;11.82;69.79;101997.50;4919463;28;45436;-76
2021/10/26 02:34:11;;;;;;;;;17.75;17.75;;;;;11.82;69.93;102001.00;4918985;28;45516;-77
2021/10/26 02:36:37;;;;;;;;;18.75;17.50;;;;;11.82;69.71;101997.50;4908205;28;45415;-75
2021/10/26 02:39:04;;;;;;;;;15.75;14.00;;;;;11.82;69.77;102010.69;4917253;28;45241;-75
2021/10/26 02:41:30;;;;;;;;;20.00;19.25;;;;;11.81;69.85;102009.81;4908363;28;48001;-76
2021/10/26 02:43:56;;;;;;;;;16.50;16.25;;;;;11.82;69.89;102010.69;4918446;28;45949;-76
2021/10/26 02:46:22;;;;;;;;;17.00;16.25;;;;;11.81;69.94;102019.47;4918522;28;45458;-77
2021/10/26 02:48:48;;;;;;;;;21.75;18.00;;;;;11.84;70.02;102016.78;4918050;28;46951;-77
2021/10/26 02:51:14;;;;;;;;;18.75;18.25;;;;;11.81;69.98;102014.19;4919484;28;45625;-76
2021/10/26 02:53:40;;;;;;;;;16.00;13.50;;;;;11.81;69.94;102014.19;4919482;28;45732;-77
2021/10/26 02:56:05;;;;;;;;;20.25;18.75;;;;;11.82;70.18;102015.94;4918765;28;45458;-76
2021/10/26 02:58:31;;;;;;;;;17.00;16.00;;;;;11.83;69.76;102020.31;4918664;28;45498;-76
2021/10/26 03:00:56;;;;;;;;;13.00;13.00;;;;;11.80;70.20;102012.47;4918264;28;46155;-76
2021/10/26 03:03:21;;;;;;;;;19.00;16.00;;;;;11.80;70.02;102015.09;4919188;28;45230;-76
2021/10/26 03:05:47;;;;;;;;;18.00;14.25;;;;;11.81;70.34;102024.72;4918794;28;45158;-76
2021/10/26 03:08:13;;;;;;;;;18.00;14.25;;;;;11.84;70.24;102022.06;4919428;28;45216;-76
2021/10/26 03:10:39;;;;;;;;;11.50;11.50;;;;;11.83;70.25;102028.22;4919162;28;45955;-76
2021/10/26 03:13:04;;;;;;;;;13.50;13.00;;;;;11.83;70.32;102022.94;4919393;28;45271;-76
2021/10/26 03:15:30;;;;;;;;;15.00;12.75;;;;;11.84;70.09;102023.81;4918262;28;45867;-76
2021/10/26 03:17:57;;;;;;;;;15.00;15.00;;;;;11.82;70.07;102024.72;4921649;28;45252;-76
2021/10/26 03:20:23;;;;;;;;;11.75;11.75;;;;;11.82;70.27;102032.63;4920853;28;45590;-76
2021/10/26 03:22:48;;;;;;;;;13.00;11.25;;;;;11.81;70.08;102030.00;4921211;28;45402;-76
2021/10/26 03:25:15;;;;;;;;;17.50;13.00;;;;;11.81;70.17;102027.38;4922127;28;45359;-76
2021/10/26 03:27:40;;;;;;;;;15.00;11.50;;;;;11.80;70.06;102034.41;4921592;28;45422;-76
2021/10/26 03:30:08;;;;;;;;;15.00;14.75;;;;;11.80;69.88;102034.41;4921760;28;46334;-76
2021/10/26 03:32:34;;;;;;;;;13.25;11.75;;;;;11.77;69.71;102030.97;4919089;28;45658;-76
2021/10/26 03:34:59;;;;;;;;;12.00;11.00;;;;;11.77;69.94;102036.22;4921639;28;45204;-76
2021/10/26 03:37:24;;;;;;;;;14.00;13.25;;;;;11.75;69.89;102031.00;4921686;28;45265;-76
2021/10/26 03:39:55;;;;;;;;;14.75;13.50;;;;;11.75;69.89;102038.03;4909562;28;46150;-76
2021/10/26 03:42:24;;;;;;;;;13.75;12.50;;;;;11.72;69.80;102031.03;4919497;28;45346;-75
2021/10/26 03:44:50;;;;;;;;;13.00;11.00;;;;;11.74;69.89;102038.91;4921639;28;45240;-76
2021/10/26 03:47:16;;;;;;;;;14.00;12.75;;;;;11.70;70.01;102036.31;4921661;28;45555;-76
2021/10/26 03:49:41;;;;;;;;;11.75;11.75;;;;;11.69;69.86;102039.88;4921659;28;45478;-76
2021/10/26 03:52:07;;;;;;;;;12.25;11.00;;;;;11.69;69.84;102045.13;4920782;28;45400;-76
2021/10/26 03:54:32;;;;;;;;;12.00;12.00;;;;;11.69;69.88;102046.88;4922017;28;45379;-76
2021/10/26 03:56:59;;;;;;;;;12.50;11.50;;;;;11.67;70.06;102044.28;4921211;28;45261;-76
2021/10/26 03:59:30;;;;;;;;;12.25;10.00;;;;;11.66;69.90;102039.03;4920188;28;46019;-75
2021/10/26 04:01:56;;;;;;;;;11.75;9.00;;;;;11.66;70.06;102044.28;4921476;28;45622;-76
2021/10/26 04:04:22;;;;;;;;;13.50;11.75;;;;;11.67;70.15;102046.03;4921354;28;45411;-76
2021/10/26 04:06:48;;;;;;;;;10.00;10.00;;;;;11.67;70.21;102040.78;4920166;28;46495;-75
2021/10/26 04:09:14;;;;;;;;;10.25;10.25;;;;;11.65;70.40;102038.19;4920484;28;45355;-76
2021/10/26 04:11:50;;;;;;;;;11.75;10.00;;;;;11.68;69.97;102050.44;4910870;28;45804;-76
2021/10/26 04:14:16;;;;;;;;;9.25;9.00;;;;;11.65;70.17;102048.72;4917784;28;45352;-76
2021/10/26 04:16:41;;;;;;;;;12.25;11.75;;;;;11.65;70.27;102048.72;4920043;28;46083;-76
2021/10/26 04:19:08;;;;;;;;;10.75;10.25;;;;;11.63;70.32;102055.75;4920240;28;46239;-77
2021/10/26 04:21:34;;;;;;;;;16.50;11.00;;;;;11.62;70.04;102053.16;4921303;28;45241;-76
2021/10/26 04:24:01;;;;;;;;;12.50;11.25;;;;;11.62;70.04;102056.66;4921401;28;45290;-77
2021/10/26 04:26:26;;;;;;;;;9.50;9.50;;;;;11.60;69.92;102058.44;4921404;28;45154;-76
2021/10/26 04:28:51;;;;;;;;;12.25;11.75;;;;;11.60;70.01;102058.44;4914431;28;46478;-76
2021/10/26 04:31:17;;;;;;;;;13.00;11.25;;;;;11.59;69.97;102059.34;4917396;28;45492;-76
2021/10/26 04:33:43;;;;;;;;;11.50;11.00;;;;;11.58;70.15;102060.25;4921098;28;45363;-76
2021/10/26 04:36:08;;;;;;;;;11.25;10.25;;;;;11.56;69.82;102057.63;4921078;28;45521;-77
2021/10/26 04:38:34;;;;;;;;;9.25;9.25;;;;;11.56;69.96;102062.00;4921096;28;46079;-76
2021/10/26 04:41:01;;;;;;;;;13.50;11.50;;;;;11.57;70.00;102058.50;4912496;28;45333;-78
2021/10/26 04:43:27;;;;;;;;;11.50;10.75;;;;;11.51;70.09;102069.13;4920340;28;45383;-77
2021/10/26 04:45:53;;;;;;;;;13.00;13.00;;;;;11.51;70.11;102075.25;4920908;28;45239;-76
2021/10/26 04:48:19;;;;;;;;;12.00;9.50;;;;;11.51;69.75;102077.03;4920961;28;45291;-76
2021/10/26 04:50:45;;;;;;;;;15.25;13.50;;;;;11.49;69.80;102074.41;4919673;28;45492;-77
2021/10/26 04:53:11;;;;;;;;;12.25;11.00;;;;;11.48;69.98;102078.78;4919734;28;45510;-76
2021/10/26 04:55:36;;;;;;;;;12.50;10.50;;;;;11.47;70.03;102078.84;4921114;28;45464;-77
2021/10/26 04:58:02;;;;;;;;;12.50;9.75;;;;;11.47;69.85;102079.72;4919812;28;46170;-78
2021/10/26 05:00:29;;;;;;;;;15.00;11.00;;;;;11.44;70.01;102084.13;4919657;28;45398;-77
2021/10/26 05:02:55;;;;;;;;;17.75;12.75;;;;;11.44;69.98;102073.59;4920712;28;45361;-76
2021/10/26 05:05:21;;;;;;;;;17.25;13.25;;;;;11.43;69.88;102080.63;4920486;28;45450;-76
2021/10/26 05:07:46;;;;;;;;;16.00;15.00;;;;;11.43;70.01;102083.25;4920012;28;45849;-75
2021/10/26 05:10:12;;;;;;;;;17.50;14.25;;;;;11.40;69.87;102078.06;4919826;28;45277;-76
2021/10/26 05:12:37;;;;;;;;;16.50;16.50;;;;;11.43;70.09;102088.53;4920838;28;45229;-76
2021/10/26 05:15:03;;;;;;;;;14.00;13.50;;;;;11.41;70.36;102084.22;4920539;28;45317;-76
2021/10/26 05:17:29;;;;;;;;;15.00;14.75;;;;;11.43;70.62;102087.69;4919964;28;48496;-76
2021/10/26 05:19:56;;;;;;;;;16.50;14.00;;;;;11.43;70.61;102083.25;4920563;28;45724;-76
2021/10/26 05:22:24;;;;;;;;;23.50;17.50;;;;;11.49;70.50;102092.84;4920978;28;45383;-76
2021/10/26 05:24:50;;;;;;;;;24.75;18.50;;;;;11.48;70.60;102091.97;4936194;28;45470;-76
2021/10/26 05:27:18;;;;;;;;;22.75;20.50;;;;;11.51;70.93;102091.03;4920301;28;46081;-76
2021/10/26 05:29:44;;;;;;;;;19.50;19.00;;;;;11.54;70.54;102096.28;4919874;28;45686;-78
2021/10/26 05:32:09;;;;;;;;;21.50;19.75;;;;;11.55;70.99;102103.28;4918478;28;45325;-75
2021/10/26 05:34:37;;;;;;;;;21.00;18.25;;;;;11.57;71.11;102100.63;4919660;28;45349;-75
2021/10/26 05:37:03;;;;;;;;;21.75;18.00;;;;;11.59;70.96;102110.25;4920500;28;45454;-75
2021/10/26 05:39:29;;;;;;;;;18.00;15.00;;;;;11.61;71.04;102107.56;4919080;28;45731;-75
2021/10/26 05:41:55;;;;;;;;;20.25;16.75;;;;;11.63;70.59;102116.31;4919789;28;45529;-75
2021/10/26 05:44:20;;;;;;;;;17.50;16.25;;;;;11.66;70.91;102120.66;4919432;28;45478;-75
2021/10/26 05:46:45;;;;;;;;;18.50;17.50;;;;;11.65;71.22;102111.94;4941982;28;46291;-75
2021/10/26 05:49:11;;;;;;;;;18.00;17.50;;;;;11.67;71.09;102118.03;4916344;28;45419;-75
2021/10/26 05:51:36;;;;;;;;;18.75;15.00;;;;;11.72;71.22;102132.88;4925736;28;45491;-75
2021/10/26 05:54:02;;;;;;;;;15.00;14.75;;;;;11.74;71.05;102128.47;4917723;28;46282;-75
2021/10/26 05:56:28;;;;;;;;;16.75;13.50;;;;;11.72;71.31;102125.88;4914763;28;45667;-77
2021/10/26 05:58:54;;;;;;;;;14.00;12.25;;;;;11.75;71.07;102130.22;4918474;28;45600;-75
2021/10/26 06:01:23;;;;;;;;;18.75;16.25;;;;;11.76;71.06;102129.31;4918281;28;45296;-76
2021/10/26 06:03:49;;;;;;;;;18.25;14.25;;;;;11.80;71.18;102138.91;4918407;28;46347;-76
2021/10/26 06:06:15;;;;;;;;;15.25;14.50;;;;;11.80;70.97;102138.91;4918647;28;45429;-76
2021/10/26 06:08:41;;;;;;;;;18.50;15.25;;;;;11.82;71.09;102142.41;4918683;28;45293;-76
2021/10/26 06:11:09;;;;;;;;;17.00;15.50;;;;;11.87;71.12;102150.22;4919258;28;45260;-76
2021/10/26 06:13:39;;;;;;;;;16.00;16.00;;;;;11.88;71.28;102160.72;4919806;28;45614;-76
2021/10/26 06:16:04;;;;;;;;;17.75;15.00;;;;;11.89;71.11;102154.56;4919011;28;45524;-76
2021/10/26 06:18:30;;;;;;;;;17.75;15.25;;;;;11.91;71.36;102155.41;4919943;28;45465;-76
2021/10/26 06:20:55;;;;;;;;;18.50;17.25;;;;;11.98;71.49;102160.56;4918202;28;47446;-76
2021/10/26 06:23:21;;;;;;;;;16.25;15.25;;;;;11.95;71.32;102150.94;4919644;28;45390;-76
2021/10/26 06:25:46;;;;;;;;;16.00;15.25;;;;;11.98;71.42;102147.41;4917397;28;46353;-76
2021/10/26 06:28:12;;;;;;;;;17.50;15.00;;;;;12.00;71.62;102156.19;4919832;28;45402;-76
2021/10/26 06:30:38;;;;;;;;;20.25;18.50;;;;;12.02;71.40;102154.38;4919611;28;45370;-76
2021/10/26 06:33:03;;;;;;;;;22.25;19.50;;;;;12.02;71.20;102157.91;4919751;28;45249;-76
2021/10/26 06:35:29;;;;;;;;;22.00;19.25;;;;;12.03;71.21;102161.38;4913118;28;46023;-76
2021/10/26 06:37:54;;;;;;;;;22.50;19.25;;;;;12.07;71.01;102157.81;4911890;28;45842;-76
2021/10/26 06:40:20;;;;;;;;;22.75;18.50;;;;;12.10;71.24;102163.00;4915858;28;45601;-76
2021/10/26 06:42:45;;;;;;;;;21.25;18.00;;;;;12.10;71.16;102163.00;4918742;28;45212;-76
2021/10/26 06:45:12;;;;;;;;;17.75;17.00;;;;;12.11;71.33;102167.41;4917229;28;45896;-76
2021/10/26 06:47:38;;;;;;;;;17.75;17.00;;;;;12.11;70.97;102164.75;4919199;28;45766;-76
2021/10/26 06:50:06;;;;;;;;;12.50;12.00;;;;;12.12;70.95;102177.03;4915484;28;45497;-76
2021/10/26 06:52:32;;;;;;;;;18.75;15.25;;;;;12.15;70.82;102182.28;4917496;28;45375;-76
2021/10/26 06:54:57;;;;;;;;;14.25;13.50;;;;;12.14;70.96;102180.56;4918183;28;45285;-76
2021/10/26 06:57:24;;;;;;;;;15.75;13.00;;;;;12.14;70.67;102177.94;4915910;28;46296;-76
2021/10/26 06:59:50;;;;;;;;;14.00;13.50;;;;;12.15;71.15;102179.66;4918765;28;45236;-76
2021/10/26 07:02:17;;;;;;;;;15.75;14.50;;;;;12.18;71.03;102183.13;4918931;28;45529;-76
2021/10/26 07:04:43;;;;;;;;;19.25;14.75;;;;;12.17;71.16;102189.31;4916407;28;46291;-75
2021/10/26 07:07:09;;;;;;;;;17.25;16.50;;;;;12.19;71.23;102187.53;4917588;28;45481;-75
2021/10/26 07:09:34;;;;;;;;;18.00;14.75;;;;;12.20;71.25;102198.03;4917159;28;45446;-75
2021/10/26 07:11:59;;;;;;;;;14.00;11.00;;;;;12.20;71.29;102208.56;4917365;28;47182;-75
2021/10/26 07:14:25;;;;;;;;;15.00;13.50;;;;;12.21;71.29;102209.44;4917718;28;45432;-75
2021/10/26 07:16:51;;;;;;;;;15.50;13.50;;;;;12.22;71.30;102201.50;4917125;28;45823;-75
2021/10/26 07:19:17;;;;;;;;;19.00;16.75;;;;;12.23;71.34;102207.66;4918207;28;45518;-76
2021/10/26 07:21:42;;;;;;;;;26.25;20.75;;;;;12.26;71.52;102215.53;4915782;28;45721;-76
2021/10/26 07:24:09;;;;;;;;;31.25;26.75;;;;;12.26;71.58;102213.75;4919067;28;45453;-75
2021/10/26 07:26:35;;;;;;;;;26.50;24.25;;;;;12.30;71.60;102219.00;4918075;28;45265;-75
2021/10/26 11:31:23;;;;;;;;;4.25;4.25;;;;;15.90;66.60;102264.41;5687945;23;45600;-73
2021/10/26 11:33:56;;;;;;;;;3.50;3.50;;;;;15.96;66.30;102253.59;4951542;28;45577;-73
2021/10/26 11:36:30;;;;;;;;;4.75;4.25;;;;;15.98;66.01;102255.28;4960102;28;45623;-73
2021/10/26 11:38:56;;;;;;;;;5.50;5.50;;;;;16.03;66.03;102254.28;4962552;28;45259;-73
2021/10/26 11:41:24;;;;;;;;;4.00;4.00;;;;;16.11;66.27;102249.63;4958763;28;45327;-74
2021/10/26 11:44:01;;;;;;;;;3.00;2.75;;;;;16.15;65.90;102247.75;4960992;28;46845;-73
2021/10/26 11:46:34;;;;;;;;;4.50;4.50;;;;;16.17;65.41;102240.63;4959579;28;45368;-73
2021/10/26 11:49:09;;;;;;;;;3.00;3.00;;;;;16.22;65.71;102240.47;4963049;28;45497;-73
2021/10/26 11:51:46;;;;;;;;;6.00;6.00;;;;;16.25;65.20;102245.69;4958705;28;45429;-73
2021/10/26 11:54:18;;;;;;;;;3.00;3.00;;;;;16.26;64.54;102244.75;4963520;28;45479;-73
2021/10/26 11:56:45;;;;;;;;;3.00;3.00;;;;;16.26;65.01;102240.31;4943772;28;45431;-73
2021/10/26 11:59:42;;;;;;;;;2.75;2.00;;;;;16.26;64.39;102245.63;4944212;28;45455;-73
2021/10/26 12:02:16;;;;;;;;;3.25;3.00;;;;;16.25;64.75;102241.22;4962658;28;45229;-73
2021/10/26 12:04:53;;;;;;;;;5.25;3.75;;;;;16.26;64.97;102231.47;4963123;28;45453;-73
2021/10/26 12:07:24;;;;;;;;;3.00;2.25;;;;;16.27;65.05;102230.56;4943771;28;46177;-73
2021/10/26 12:09:55;;;;;;;;;5.00;3.00;;;;;16.26;64.56;102235.00;4944440;28;45878;-73
2021/10/26 12:12:26;;;;;;;;;4.00;3.25;;;;;16.27;64.54;102235.88;4959593;28;45446;-73
2021/10/26 12:14:53;;;;;;;;;2.25;2.00;;;;;16.31;64.26;102234.84;4961661;28;45474;-73
2021/10/26 12:17:26;;;;;;;;;4.25;4.00;;;;;16.36;64.73;102238.22;4946589;28;45325;-73
2021/10/26 12:20:01;;;;;;;;;3.75;3.75;;;;;16.39;64.94;102238.13;4944493;28;47376;-73
2021/10/26 12:22:40;;;;;;;;;4.25;4.00;;;;;16.43;64.00;102236.22;4962771;28;45607;-73
2021/10/26 12:25:20;;;;;;;;;3.00;2.25;;;;;16.48;64.13;102244.00;4961244;28;45394;-73
2021/10/26 12:27:49;;;;;;;;;3.50;2.75;;;;;16.51;64.61;102243.91;4962819;28;45425;-73
2021/10/26 12:30:17;;;;;;;;;4.00;4.00;;;;;16.56;64.74;102235.78;4963178;28;45501;-73
2021/10/26 12:32:47;;;;;;;;;2.50;2.00;;;;;16.60;64.28;102232.09;4962669;28;45443;-73
2021/10/26 12:35:13;;;;;;;;;3.25;3.00;;;;;16.62;64.09;102239.09;4960770;28;45441;-74
2021/10/26 12:37:39;;;;;;;;;3.75;3.00;;;;;16.64;64.15;102229.28;4962752;28;45557;-73
2021/10/26 12:40:18;;;;;;;;;5.75;4.00;;;;;16.65;63.77;102220.41;4962080;28;45353;-73
2021/10/26 12:43:06;;;;;;;;;2.50;2.50;;;;;16.67;63.89;102220.34;4958443;28;45383;-73
2021/10/26 12:45:37;;;;;;;;;3.00;3.00;;;;;16.67;63.69;102219.50;4953039;28;45518;-73
2021/10/26 12:48:08;;;;;;;;;3.00;3.00;;;;;16.67;63.60;102216.84;4946622;28;45296;-73
2021/10/26 12:50:47;;;;;;;;;2.75;2.75;;;;;16.70;63.35;102222.03;4942850;28;45410;-73
2021/10/26 12:53:19;;;;;;;;;4.25;3.75;;;;;16.69;63.75;102218.50;4948378;28;45434;-73
2021/10/26 12:55:54;;;;;;;;;3.25;3.00;;;;;16.68;63.73;102218.56;4949425;28;45330;-73
2021/10/26 12:58:37;;;;;;;;;3.75;3.75;;;;;16.70;63.94;102224.69;4950510;28;45573;-73
2021/10/26 13:01:25;;;;;;;;;4.75;3.00;;;;;16.72;64.05;102217.53;4962082;28;45209;-73
2021/10/26 13:04:00;;;;;;;;;4.00;3.25;;;;;16.75;63.72;102222.75;4961405;28;45226;-73
2021/10/26 13:06:29;;;;;;;;;3.00;3.00;;;;;16.75;63.85;102218.31;4962095;28;45366;-73
2021/10/26 13:08:56;;;;;;;;;3.50;3.00;;;;;16.77;63.31;102218.25;4953085;28;45435;-73
2021/10/26 13:11:27;;;;;;;;;4.50;4.00;;;;;16.76;63.50;102214.75;4942943;28;45440;-73
2021/10/26 13:14:14;;;;;;;;;4.50;4.00;;;;;16.78;63.84;102222.63;4944503;28;46219;-73
2021/10/26 13:16:43;;;;;;;;;3.00;3.00;;;;;16.80;63.44;102212.81;4956376;28;46382;-74
2021/10/26 13:19:28;;;;;;;;;4.75;4.00;;;;;16.82;63.46;102220.72;4961524;28;46437;-74
2021/10/26 13:22:09;;;;;;;;;3.75;3.00;;;;;16.78;63.65;102225.28;4954691;28;45367;-73
2021/10/26 13:24:35;;;;;;;;;3.00;3.00;;;;;16.79;63.14;102227.00;4957488;28;45550;-73
2021/10/26 13:27:01;;;;;;;;;4.75;3.50;;;;;16.80;63.70;102222.56;4961127;28;45377;-73
2021/10/26 13:29:40;;;;;;;;;4.25;3.75;;;;;16.80;63.48;102228.75;4961006;28;46198;-73
2021/10/26 13:32:16;;;;;;;;;4.00;4.00;;;;;16.82;63.41;102226.03;4944878;28;45384;-73
2021/10/26 13:34:41;;;;;;;;;3.00;3.00;;;;;16.84;63.42;102232.19;4957425;28;45450;-74
2021/10/26 13:37:07;;;;;;;;;4.00;4.00;;;;;16.87;63.35;102217.00;4945849;28;46774;-73
2021/10/26 13:39:32;;;;;;;;;2.75;2.75;;;;;16.92;62.84;102219.47;4961037;28;46291;-74
2021/10/26 13:41:58;;;;;;;;;2.50;2.50;;;;;16.95;62.97;102221.16;4959816;28;45508;-73
2021/10/26 13:44:23;;;;;;;;;5.50;3.00;;;;;16.97;63.06;102214.00;4960299;28;46456;-73
2021/10/26 13:46:50;;;;;;;;;5.00;5.00;;;;;17.02;63.15;102211.16;4960943;28;45494;-75
2021/10/26 13:49:16;;;;;;;;;4.75;4.25;;;;;17.03;63.00;102203.16;4960166;28;46452;-75
2021/10/26 13:51:43;;;;;;;;;3.00;3.00;;;;;17.04;63.07;102207.53;4961287;28;45662;-74
2021/10/26 13:54:08;;;;;;;;;4.00;3.00;;;;;17.05;63.55;102205.75;4959598;28;45461;-74
2021/10/26 13:56:33;;;;;;;;;3.75;3.75;;;;;17.07;63.41;102204.78;4959465;28;45505;-74
2021/10/26 13:59:00;;;;;;;;;5.50;5.00;;;;;17.09;62.65;102207.34;4958682;28;45489;-74
2021/10/26 14:01:26;;;;;;;;;5.25;4.50;;;;;17.11;62.60;102208.19;4957087;28;45358;-75
2021/10/26 14:03:52;;;;;;;;;4.00;3.00;;;;;17.14;63.01;102217.81;4959366;28;45442;-75
2021/10/26 14:06:19;;;;;;;;;3.00;3.00;;;;;17.17;63.36;102220.38;4956795;28;45453;-76
2021/10/26 14:08:46;;;;;;;;;5.25;3.00;;;;;17.18;62.95;102219.47;4948603;28;46146;-75
2021/10/26 14:11:12;;;;;;;;;2.50;2.50;;;;;17.16;62.81;102216.88;4960430;28;45387;-75
2021/10/26 14:13:39;;;;;;;;;4.25;3.50;;;;;17.17;63.01;102221.25;4940899;28;45261;-74
2021/10/26 14:16:06;;;;;;;;;1.50;1.00;;;;;17.17;62.88;102220.38;4948230;28;45509;-74
2021/10/26 14:18:33;;;;;;;;;3.00;3.00;;;;;17.16;62.79;102222.19;4959166;28;45671;-74
2021/10/26 14:21:00;;;;;;;;;3.25;3.00;;;;;17.18;63.26;102228.31;4945988;28;45371;-75
2021/10/26 14:23:27;;;;;;;;;2.00;2.00;;;;;17.22;63.66;102221.09;4966518;28;46119;-75
2021/10/26 14:25:55;;;;;;;;;3.50;2.50;;;;;17.24;63.59;102221.91;4943379;28;45598;-75
2021/10/26 14:28:22;;;;;;;;;3.25;2.25;;;;;17.24;62.93;102215.72;4961248;28;46089;-75
2021/10/26 14:30:49;;;;;;;;;4.00;2.00;;;;;17.23;63.17;102214.88;4960917;28;45289;-75
2021/10/26 14:33:15;;;;;;;;;3.50;2.00;;;;;17.26;63.44;102230.66;4960688;28;45249;-75
2021/10/26 14:35:43;;;;;;;;;3.00;3.00;;;;;17.27;62.99;102216.47;4949261;28;45483;-75
2021/10/26 14:38:21;;;;;;;;;3.25;3.00;;;;;17.25;63.13;102220.09;4954359;28;45250;-75
2021/10/26 14:41:00;;;;;;;;;4.00;2.50;;;;;17.28;63.45;102217.34;4958879;28;45651;-75
2021/10/26 14:56:53;;;;;;;;;2.75;2.75;;;;;17.27;63.53;102226.22;4957831;28;45602;-75
2021/10/26 14:59:19;;;;;;;;;3.00;3.00;;;;;17.27;64.09;102237.72;4958851;28;46035;-75
2021/10/26 15:01:44;;;;;;;;;2.50;2.00;;;;;17.25;63.51;102228.94;4956492;28;45637;-75
2021/10/26 15:04:10;;;;;;;;;2.00;2.00;;;;;17.28;63.40;102234.16;4949336;28;45628;-75
2021/10/26 15:06:37;;;;;;;;;4.75;3.00;;;;;17.27;63.64;102228.88;4957212;28;45475;-75
2021/10/26 15:09:15;;;;;;;;;2.00;2.00;;;;;17.26;64.13;102233.31;4959329;28;47430;-75
2021/10/26 15:11:44;;;;;;;;;3.75;3.00;;;;;17.24;63.95;102224.56;4960353;28;45686;-75
2021/10/26 15:14:12;;;;;;;;;2.00;2.00;;;;;17.24;63.94;102224.56;4960574;28;45285;-75
2021/10/26 15:16:41;;;;;;;;;3.00;2.25;;;;;17.23;63.59;102228.16;4959475;28;45429;-75
2021/10/26 15:19:07;;;;;;;;;3.00;2.00;;;;;17.21;63.76;102228.19;4960581;28;45431;-76
2021/10/26 15:21:40;;;;;;;;;3.00;3.00;;;;;17.19;63.78;102226.50;4959133;28;45305;-75
2021/10/26 15:24:21;;;;;;;;;3.50;3.50;;;;;17.19;63.89;102226.50;4959418;28;45297;-75
2021/10/26 15:34:58;;;;;;;;;2.00;2.00;;;;;17.12;63.74;102232.94;4960156;28;45704;-75
2021/10/26 15:37:23;;;;;;;;;2.00;1.00;;;;;17.10;63.74;102231.22;4959125;28;47256;-75
2021/10/26 15:39:50;;;;;;;;;1.50;1.25;;;;;17.10;63.87;102236.53;4959108;28;45417;-75